Time;durP1;ratioP1;P1;durP2;ratioP2;P2;SDS_P1;SDS_P2;PMS_P1;PMS_P2;Temp;Humidity;BMP_temperature;BMP_pressure;BME280_temperature;BME280_humidity;BME280_pressure;Samples;Min_cycle;Max_cycle;Signal;HPM_P1;HPM_P2
2023/08/23 00:01:18;;;;;;;;;;;17.10;99.90;;;;;;7326411;19;9124;-84
2023/08/23 00:03:47;;;;;;;;;;;17.00;99.90;;;;;;7323858;19;9203;-84
2023/08/23 00:06:15;;;;;;;;;;;16.90;99.90;;;;;;7322629;19;9542;-85
2023/08/23 00:08:44;;;;;;;;;;;16.90;99.90;;;;;;7321161;19;9062;-84
2023/08/23 00:11:13;;;;;;;;;;;16.80;99.90;;;;;;7322354;19;9237;-84
2023/08/23 00:13:42;;;;;;;;;;;16.70;99.90;;;;;;7322151;19;9148;-84
2023/08/23 00:16:11;;;;;;;;;;;16.70;99.90;;;;;;7321042;19;9476;-83
2023/08/23 00:18:43;;;;;;;;;;;16.60;99.90;;;;;;7321686;19;9426;-84
2023/08/23 00:21:12;;;;;;;;;;;16.50;99.90;;;;;;7321991;19;9184;-84
2023/08/23 00:23:41;;;;;;;;;;;16.50;99.90;;;;;;7321570;19;9141;-84
2023/08/23 00:26:10;;;;;;;;;;;16.40;99.90;;;;;;7326370;19;9632;-84
2023/08/23 00:28:41;;;;;;;;;;;16.40;99.90;;;;;;7328521;19;8980;-84
2023/08/23 00:31:10;;;;;;;;;;;16.40;99.90;;;;;;7328990;19;9443;-84
2023/08/23 00:33:41;;;;;;;;;;;16.40;99.90;;;;;;7328933;19;9125;-83
2023/08/23 00:36:10;;;;;;;;;;;16.30;99.90;;;;;;7327845;19;10909;-84
2023/08/23 00:38:39;;;;;;;;;;;16.20;99.90;;;;;;7328808;19;9271;-83
2023/08/23 00:41:09;;;;;;;;;;;16.30;99.90;;;;;;7328929;19;9200;-84
2023/08/23 00:43:38;;;;;;;;;;;16.30;99.90;;;;;;7328667;19;9645;-83
2023/08/23 00:46:08;;;;;;;;;;;16.30;99.90;;;;;;7329701;19;9173;-84
2023/08/23 00:48:38;;;;;;;;;;;16.30;99.90;;;;;;7328002;19;9209;-84
2023/08/23 00:51:10;;;;;;;;;;;16.20;99.90;;;;;;7328178;19;9131;-83
2023/08/23 00:53:41;;;;;;;;;;;16.20;99.90;;;;;;7328789;19;10153;-83
2023/08/23 00:56:10;;;;;;;;;;;16.00;99.90;;;;;;7327455;19;9169;-84
2023/08/23 00:58:39;;;;;;;;;;;16.00;99.90;;;;;;7327870;19;9189;-84
2023/08/23 01:01:09;;;;;;;;;;;16.00;99.90;;;;;;7327743;19;9174;-83
2023/08/23 01:03:38;;;;;;;;;;;15.90;99.90;;;;;;7327457;19;9209;-84
2023/08/23 01:06:20;;;;;;;;;;;16.00;99.90;;;;;;7327423;19;9611;-84
2023/08/23 01:09:00;;;;;;;;;;;16.00;99.90;;;;;;7325931;19;9173;-84
2023/08/23 01:11:39;;;;;;;;;;;16.00;99.90;;;;;;7327303;19;9161;-84
2023/08/23 01:14:17;;;;;;;;;;;16.00;99.90;;;;;;7327160;19;9233;-83
2023/08/23 01:16:50;;;;;;;;;;;16.00;99.90;;;;;;7326405;19;9288;-83
2023/08/23 01:19:48;;;;;;;;;;;15.90;99.90;;;;;;7327159;19;8944;-83
2023/08/23 01:22:21;;;;;;;;;;;15.90;99.90;;;;;;7326965;19;9189;-84
2023/08/23 01:24:53;;;;;;;;;;;15.90;99.90;;;;;;7326903;19;9188;-84
2023/08/23 01:27:22;;;;;;;;;;;15.90;99.90;;;;;;7327070;19;9194;-83
2023/08/23 01:29:51;;;;;;;;;;;15.90;99.90;;;;;;7326788;19;9264;-84
2023/08/23 01:32:40;;;;;;;;;;;15.90;99.90;;;;;;7326516;19;9197;-83
2023/08/23 01:35:18;;;;;;;;;;;15.80;99.90;;;;;;7326808;19;8945;-83
2023/08/23 01:37:51;;;;;;;;;;;15.80;99.90;;;;;;7325125;19;9517;-83
2023/08/23 01:40:23;;;;;;;;;;;15.80;99.90;;;;;;7327448;19;10321;-83
2023/08/23 01:42:53;;;;;;;;;;;15.70;99.90;;;;;;7326359;19;9130;-83
2023/08/23 01:45:22;;;;;;;;;;;15.70;99.90;;;;;;7328963;19;9122;-83
2023/08/23 01:47:51;;;;;;;;;;;15.70;99.90;;;;;;7326396;19;9184;-83
2023/08/23 01:50:21;;;;;;;;;;;15.70;99.90;;;;;;7326378;19;9458;-83
2023/08/23 01:52:50;;;;;;;;;;;15.70;99.90;;;;;;7326413;19;9454;-83
2023/08/23 01:55:22;;;;;;;;;;;15.70;99.90;;;;;;7326137;19;9133;-83
2023/08/23 01:57:51;;;;;;;;;;;15.80;99.90;;;;;;7324860;19;9487;-83
2023/08/23 02:00:20;;;;;;;;;;;15.80;99.90;;;;;;7328041;19;9130;-83
2023/08/23 02:02:49;;;;;;;;;;;15.70;99.90;;;;;;7330059;19;9122;-83
2023/08/23 02:05:18;;;;;;;;;;;15.60;99.90;;;;;;7328131;19;9027;-84
2023/08/23 02:07:47;;;;;;;;;;;15.60;99.90;;;;;;7325200;19;9210;-84
2023/08/23 02:10:16;;;;;;;;;;;15.60;99.90;;;;;;7326090;19;9182;-84
2023/08/23 02:12:47;;;;;;;;;;;15.70;99.90;;;;;;7326027;19;9335;-84
2023/08/23 02:15:16;;;;;;;;;;;15.70;99.90;;;;;;7325335;19;9160;-83
2023/08/23 02:17:45;;;;;;;;;;;15.80;99.90;;;;;;7324201;19;9185;-83
2023/08/23 02:20:14;;;;;;;;;;;15.80;99.90;;;;;;7325821;19;9185;-84
2023/08/23 02:22:43;;;;;;;;;;;15.80;99.90;;;;;;7325574;19;9300;-83
2023/08/23 02:25:12;;;;;;;;;;;15.80;99.90;;;;;;7325481;19;9220;-83
2023/08/23 02:27:41;;;;;;;;;;;15.80;99.90;;;;;;7325037;19;10624;-84
2023/08/23 02:30:15;;;;;;;;;;;15.80;99.90;;;;;;7325862;19;9529;-83
2023/08/23 02:32:44;;;;;;;;;;;15.80;99.90;;;;;;7325116;19;9193;-83
2023/08/23 02:35:13;;;;;;;;;;;15.80;99.90;;;;;;7324691;19;9235;-83
2023/08/23 02:37:42;;;;;;;;;;;15.60;99.90;;;;;;7323809;19;9570;-83
2023/08/23 02:40:13;;;;;;;;;;;15.60;99.90;;;;;;7324720;19;9177;-84
2023/08/23 02:42:42;;;;;;;;;;;15.60;99.90;;;;;;7324302;19;9281;-84
2023/08/23 02:45:13;;;;;;;;;;;15.60;99.90;;;;;;7326129;19;9507;-84
2023/08/23 02:47:42;;;;;;;;;;;15.70;99.90;;;;;;7323247;19;9189;-83
2023/08/23 02:50:12;;;;;;;;;;;15.70;99.90;;;;;;7324310;19;9166;-84
2023/08/23 02:52:42;;;;;;;;;;;15.60;99.90;;;;;;7324013;19;9193;-83
2023/08/23 02:55:11;;;;;;;;;;;15.60;99.90;;;;;;7324390;19;9470;-84
2023/08/23 02:57:40;;;;;;;;;;;15.60;99.90;;;;;;7321456;19;10381;-84
2023/08/23 03:00:13;;;;;;;;;;;15.60;99.90;;;;;;7324698;19;8945;-83
2023/08/23 03:02:42;;;;;;;;;;;15.50;99.90;;;;;;7323916;19;9657;-84
2023/08/23 03:05:11;;;;;;;;;;;15.40;99.90;;;;;;7324090;19;9233;-84
2023/08/23 03:07:40;;;;;;;;;;;15.40;99.90;;;;;;7323105;19;11245;-83
2023/08/23 03:10:11;;;;;;;;;;;15.40;99.90;;;;;;7323486;19;9515;-84
2023/08/23 03:12:40;;;;;;;;;;;15.50;99.90;;;;;;7324086;19;9311;-83
2023/08/23 03:15:13;;;;;;;;;;;15.50;99.90;;;;;;7323328;19;9185;-82
2023/08/23 03:17:42;;;;;;;;;;;15.50;99.90;;;;;;7322497;19;9394;-83
2023/08/23 03:20:11;;;;;;;;;;;15.50;99.90;;;;;;7323257;19;9197;-83
2023/08/23 03:22:40;;;;;;;;;;;15.50;99.90;;;;;;7323080;19;9201;-83
2023/08/23 03:25:10;;;;;;;;;;;15.50;99.90;;;;;;7323022;19;9549;-84
2023/08/23 03:27:39;;;;;;;;;;;15.60;99.90;;;;;;7324110;19;9358;-83
2023/08/23 03:30:10;;;;;;;;;;;15.60;99.90;;;;;;7322891;19;9303;-84
2023/08/23 03:32:42;;;;;;;;;;;15.60;99.90;;;;;;7323242;19;9253;-84
2023/08/23 03:35:11;;;;;;;;;;;15.60;99.90;;;;;;7322804;19;9204;-83
2023/08/23 03:37:40;;;;;;;;;;;15.60;99.90;;;;;;7321968;19;9323;-83
2023/08/23 03:40:09;;;;;;;;;;;15.60;99.90;;;;;;7322705;19;9403;-82
2023/08/23 03:42:38;;;;;;;;;;;15.60;99.90;;;;;;7322574;19;9192;-83
2023/08/23 03:45:09;;;;;;;;;;;15.60;99.90;;;;;;7324700;19;9252;-84
2023/08/23 03:47:38;;;;;;;;;;;15.60;99.90;;;;;;7322171;19;10326;-83
2023/08/23 03:50:10;;;;;;;;;;;15.60;99.90;;;;;;7322532;19;9165;-83
2023/08/23 03:52:39;;;;;;;;;;;15.50;99.90;;;;;;7322416;19;9165;-84
2023/08/23 03:55:09;;;;;;;;;;;15.60;99.90;;;;;;7322148;19;10343;-84
2023/08/23 03:57:38;;;;;;;;;;;15.60;99.90;;;;;;7321589;19;9487;-83
2023/08/23 04:00:09;;;;;;;;;;;15.60;99.90;;;;;;7323566;19;9198;-84
2023/08/23 04:02:38;;;;;;;;;;;15.60;99.90;;;;;;7329893;19;10173;-83
2023/08/23 04:05:11;;;;;;;;;;;15.60;99.90;;;;;;7330727;19;9404;-84
2023/08/23 04:07:41;;;;;;;;;;;15.60;99.90;;;;;;7331066;19;9462;-84
2023/08/23 04:10:11;;;;;;;;;;;15.50;99.90;;;;;;7329665;19;9230;-84
2023/08/23 04:12:42;;;;;;;;;;;15.50;99.90;;;;;;7329691;19;9189;-83
2023/08/23 04:15:12;;;;;;;;;;;15.50;99.90;;;;;;7329190;19;9251;-84
2023/08/23 04:17:41;;;;;;;;;;;15.50;99.90;;;;;;7328494;19;9405;-83
2023/08/23 04:20:14;;;;;;;;;;;15.50;99.90;;;;;;7329140;19;9536;-83
2023/08/23 04:22:43;;;;;;;;;;;15.50;99.90;;;;;;7329258;19;10449;-84
2023/08/23 04:25:14;;;;;;;;;;;15.50;99.90;;;;;;7329540;19;9208;-84
2023/08/23 04:27:43;;;;;;;;;;;15.40;99.90;;;;;;7330389;19;9302;-83
2023/08/23 04:30:13;;;;;;;;;;;15.40;99.90;;;;;;7329107;19;10155;-83
2023/08/23 04:32:41;;;;;;;;;;;15.40;99.90;;;;;;7328531;19;9220;-84
2023/08/23 04:35:13;;;;;;;;;;;15.40;99.90;;;;;;7328444;19;9476;-83
2023/08/23 04:37:43;;;;;;;;;;;15.40;99.90;;;;;;7327816;19;9228;-84
2023/08/23 04:40:13;;;;;;;;;;;15.40;99.90;;;;;;7328922;19;9180;-84
2023/08/23 04:42:42;;;;;;;;;;;15.40;99.90;;;;;;7328994;19;9060;-84
2023/08/23 04:45:12;;;;;;;;;;;15.40;99.90;;;;;;7330515;19;9240;-83
2023/08/23 04:47:42;;;;;;;;;;;15.40;99.90;;;;;;7328392;19;9190;-84
2023/08/23 04:50:13;;;;;;;;;;;15.50;99.90;;;;;;7328124;19;9543;-82
2023/08/23 04:52:42;;;;;;;;;;;15.50;99.90;;;;;;7328021;19;10452;-83
2023/08/23 04:55:12;;;;;;;;;;;15.50;99.90;;;;;;7327931;19;9574;-83
2023/08/23 04:57:41;;;;;;;;;;;15.50;99.90;;;;;;7327060;19;11233;-84
2023/08/23 05:00:12;;;;;;;;;;;15.50;99.90;;;;;;7328003;19;9288;-83
2023/08/23 05:02:40;;;;;;;;;;;15.60;99.90;;;;;;7328021;19;10259;-83
2023/08/23 05:05:13;;;;;;;;;;;15.70;99.90;;;;;;7327529;19;9486;-83
2023/08/23 05:07:42;;;;;;;;;;;15.70;99.90;;;;;;7326628;19;9611;-83
2023/08/23 05:10:11;;;;;;;;;;;15.80;99.90;;;;;;7327340;19;9225;-83
2023/08/23 05:12:40;;;;;;;;;;;15.80;99.90;;;;;;7326825;19;9248;-83
2023/08/23 05:15:10;;;;;;;;;;;15.90;99.90;;;;;;7327471;19;9498;-83
2023/08/23 05:17:39;;;;;;;;;;;16.00;99.90;;;;;;7326704;19;10599;-83
2023/08/23 05:20:10;;;;;;;;;;;16.00;99.90;;;;;;7327148;19;9230;-83
2023/08/23 05:22:42;;;;;;;;;;;16.00;99.90;;;;;;7328036;19;9202;-84
2023/08/23 05:25:11;;;;;;;;;;;16.00;99.90;;;;;;7327164;19;9229;-83
2023/08/23 05:27:40;;;;;;;;;;;16.00;99.90;;;;;;7326957;19;9458;-84
2023/08/23 05:30:10;;;;;;;;;;;16.00;99.90;;;;;;7327088;19;9137;-84
2023/08/23 05:32:39;;;;;;;;;;;16.00;99.90;;;;;;7327424;19;9463;-83
2023/08/23 05:35:10;;;;;;;;;;;16.00;99.90;;;;;;7326619;19;9521;-83
2023/08/23 05:37:42;;;;;;;;;;;16.00;99.90;;;;;;7326368;19;9197;-83
2023/08/23 05:40:12;;;;;;;;;;;16.00;99.90;;;;;;7326158;19;9651;-84
2023/08/23 05:42:40;;;;;;;;;;;16.10;99.90;;;;;;7326362;19;9296;-84
2023/08/23 05:45:11;;;;;;;;;;;16.20;99.90;;;;;;7325154;19;10317;-84
2023/08/23 05:47:40;;;;;;;;;;;16.40;99.90;;;;;;7326079;19;9531;-83
2023/08/23 05:50:10;;;;;;;;;;;16.50;99.90;;;;;;7326647;19;9186;-83
2023/08/23 05:52:38;;;;;;;;;;;16.60;99.90;;;;;;7325962;19;9724;-83
2023/08/23 05:55:11;;;;;;;;;;;16.60;99.90;;;;;;7326108;19;9218;-84
2023/08/23 05:57:40;;;;;;;;;;;16.60;99.90;;;;;;7325656;19;9102;-83
2023/08/23 06:00:12;;;;;;;;;;;16.70;99.90;;;;;;7325779;19;9233;-83
2023/08/23 06:02:41;;;;;;;;;;;16.70;99.90;;;;;;7325982;19;9264;-84
2023/08/23 06:05:11;;;;;;;;;;;16.70;99.90;;;;;;7325646;19;9706;-83
2023/08/23 06:07:40;;;;;;;;;;;16.70;99.90;;;;;;7325679;19;9515;-83
2023/08/23 06:10:13;;;;;;;;;;;16.70;99.90;;;;;;7327060;19;9231;-83
2023/08/23 06:12:42;;;;;;;;;;;16.80;99.90;;;;;;7328239;19;9135;-83
2023/08/23 06:15:12;;;;;;;;;;;16.90;99.90;;;;;;7325790;19;9276;-84
2023/08/23 06:17:41;;;;;;;;;;;16.90;99.90;;;;;;7325168;19;9391;-84
2023/08/23 06:20:11;;;;;;;;;;;17.10;99.90;;;;;;7325067;19;9479;-84
2023/08/23 06:22:40;;;;;;;;;;;17.20;99.90;;;;;;7323119;19;10299;-84
2023/08/23 06:25:12;;;;;;;;;;;17.30;99.90;;;;;;7324989;19;9281;-83
2023/08/23 06:27:41;;;;;;;;;;;17.40;99.90;;;;;;7324904;19;9230;-84
2023/08/23 06:30:11;;;;;;;;;;;17.50;99.90;;;;;;7324509;19;9170;-83
2023/08/23 06:32:40;;;;;;;;;;;17.60;99.90;;;;;;7324922;19;9193;-84
2023/08/23 06:35:09;;;;;;;;;;;17.70;99.90;;;;;;7324638;19;10420;-83
2023/08/23 06:37:39;;;;;;;;;;;17.80;99.90;;;;;;7324399;19;9584;-83
2023/08/23 06:40:10;;;;;;;;;;;17.90;99.90;;;;;;7322599;19;9251;-84
2023/08/23 06:42:41;;;;;;;;;;;18.00;99.90;;;;;;7324632;19;9473;-84
2023/08/23 06:45:12;;;;;;;;;;;18.10;99.90;;;;;;7323494;19;9183;-83
2023/08/23 06:47:41;;;;;;;;;;;18.20;99.90;;;;;;7324302;19;9121;-83
2023/08/23 06:50:11;;;;;;;;;;;18.20;99.90;;;;;;7324174;19;9174;-83
2023/08/23 06:52:40;;;;;;;;;;;18.30;99.90;;;;;;7323934;19;9473;-84
2023/08/23 06:55:10;;;;;;;;;;;18.30;99.90;;;;;;7323842;19;9493;-84
2023/08/23 06:57:42;;;;;;;;;;;18.30;99.90;;;;;;7323865;19;9197;-83
2023/08/23 07:00:13;;;;;;;;;;;18.40;99.90;;;;;;7322231;19;9226;-83
2023/08/23 07:02:42;;;;;;;;;;;18.40;99.90;;;;;;7323808;19;9310;-85
2023/08/23 07:05:11;;;;;;;;;;;18.60;99.90;;;;;;7323542;19;10333;-84
2023/08/23 07:07:40;;;;;;;;;;;18.70;99.90;;;;;;7323165;19;9197;-83
2023/08/23 07:10:10;;;;;;;;;;;18.90;99.90;;;;;;7323611;19;9651;-83
2023/08/23 07:12:41;;;;;;;;;;;19.10;99.90;;;;;;7323548;19;9245;-84
2023/08/23 07:15:11;;;;;;;;;;;19.30;99.90;;;;;;7323598;19;9159;-84
2023/08/23 07:17:40;;;;;;;;;;;19.40;99.90;;;;;;7323299;19;9262;-82
2023/08/23 07:20:12;;;;;;;;;;;19.50;99.90;;;;;;7321756;19;9197;-83
2023/08/23 07:22:40;;;;;;;;;;;19.50;99.90;;;;;;7323484;19;9212;-84
2023/08/23 07:25:11;;;;;;;;;;;19.50;99.90;;;;;;7323433;19;9197;-84
2023/08/23 07:27:42;;;;;;;;;;;19.70;99.90;;;;;;7323331;19;9176;-84
2023/08/23 07:30:12;;;;;;;;;;;19.90;99.90;;;;;;7323611;19;9209;-83
2023/08/23 07:32:41;;;;;;;;;;;20.20;99.90;;;;;;7323090;19;9456;-83
2023/08/23 07:35:11;;;;;;;;;;;20.40;99.90;;;;;;7322937;19;9219;-84
2023/08/23 07:37:41;;;;;;;;;;;20.30;99.90;;;;;;7322900;19;9228;-83
2023/08/23 07:40:10;;;;;;;;;;;20.30;99.90;;;;;;7321611;19;9181;-83
2023/08/23 07:42:42;;;;;;;;;;;20.30;99.90;;;;;;7322993;19;9288;-83
2023/08/23 07:45:12;;;;;;;;;;;20.30;99.90;;;;;;7321574;19;9133;-83
2023/08/23 07:47:41;;;;;;;;;;;20.70;99.90;;;;;;7322746;19;9222;-83
2023/08/23 07:50:11;;;;;;;;;;;21.10;99.90;;;;;;7322650;19;9220;-84
2023/08/23 07:52:40;;;;;;;;;;;21.40;99.90;;;;;;7322893;19;9167;-83
2023/08/23 07:55:10;;;;;;;;;;;21.70;99.90;;;;;;7322639;19;9321;-84
2023/08/23 07:57:41;;;;;;;;;;;21.90;99.90;;;;;;7322067;19;9191;-83
2023/08/23 08:00:13;;;;;;;;;;;22.00;99.90;;;;;;7320691;19;9230;-83
2023/08/23 08:02:41;;;;;;;;;;;22.20;99.90;;;;;;7322427;19;9224;-83
2023/08/23 08:05:11;;;;;;;;;;;22.40;99.90;;;;;;7322151;19;9490;-84
2023/08/23 08:07:40;;;;;;;;;;;22.60;99.90;;;;;;7321486;19;9162;-84
2023/08/23 08:10:09;;;;;;;;;;;22.70;99.90;;;;;;7322590;19;9181;-84
2023/08/23 08:12:38;;;;;;;;;;;22.90;99.90;;;;;;7322365;19;9294;-84
2023/08/23 08:15:11;;;;;;;;;;;23.00;99.90;;;;;;7324051;19;9204;-84
2023/08/23 08:17:40;;;;;;;;;;;22.90;99.90;;;;;;7324818;19;9352;-84
2023/08/23 08:20:10;;;;;;;;;;;23.10;99.90;;;;;;7320829;19;9696;-84
2023/08/23 08:22:40;;;;;;;;;;;23.00;99.90;;;;;;7322132;19;9418;-84
2023/08/23 08:25:10;;;;;;;;;;;22.90;99.90;;;;;;7321826;19;9547;-83
2023/08/23 08:27:39;;;;;;;;;;;22.90;99.90;;;;;;7321846;19;9404;-84
2023/08/23 08:30:12;;;;;;;;;;;22.90;99.90;;;;;;7321693;19;9239;-84
2023/08/23 08:32:41;;;;;;;;;;;22.90;99.90;;;;;;7321852;19;9241;-84
2023/08/23 08:35:10;;;;;;;;;;;22.90;99.90;;;;;;7321577;19;9307;-84
2023/08/23 08:37:40;;;;;;;;;;;22.90;99.90;;;;;;7321510;19;9255;-83
2023/08/23 08:40:10;;;;;;;;;;;22.90;99.90;;;;;;7319645;19;9294;-84
2023/08/23 08:42:39;;;;;;;;;;;23.00;99.90;;;;;;7321793;19;9532;-85
2023/08/23 08:45:12;;;;;;;;;;;23.10;99.90;;;;;;7320226;19;9153;-83
2023/08/23 08:47:41;;;;;;;;;;;23.10;99.90;;;;;;7327102;19;9173;-84
2023/08/23 08:50:11;;;;;;;;;;;23.10;99.90;;;;;;7327996;19;9199;-83
2023/08/23 08:52:44;;;;;;;;;;;23.00;99.90;;;;;;7327945;19;9183;-83
2023/08/23 08:55:14;;;;;;;;;;;23.10;99.90;;;;;;7328134;19;9011;-84
2023/08/23 08:57:44;;;;;;;;;;;23.10;99.90;;;;;;7328021;19;9198;-85
2023/08/23 09:00:18;;;;;;;;;;;23.00;99.90;;;;;;7326311;19;9616;-84
2023/08/23 09:02:47;;;;;;;;;;;23.00;99.90;;;;;;7328005;19;9263;-84
2023/08/23 09:05:19;;;;;;;;;;;23.10;99.90;;;;;;7327741;19;9485;-84
2023/08/23 09:07:48;;;;;;;;;;;23.20;99.90;;;;;;7327101;19;9669;-84
2023/08/23 09:10:17;;;;;;;;;;;23.10;99.90;;;;;;7327663;19;9165;-84
2023/08/23 09:12:46;;;;;;;;;;;23.20;99.90;;;;;;7327591;19;9189;-83
2023/08/23 09:15:23;;;;;;;;;;;23.20;99.90;;;;;;7327500;19;9153;-83
2023/08/23 09:17:55;;;;;;;;;;;23.30;99.90;;;;;;7327234;19;9197;-83
2023/08/23 09:20:24;;;;;;;;;;;23.30;99.90;;;;;;7325492;19;9533;-83
2023/08/23 09:22:54;;;;;;;;;;;23.20;99.90;;;;;;7327053;19;10303;-84
2023/08/23 09:25:25;;;;;;;;;;;23.20;99.90;;;;;;7327008;19;9076;-84
2023/08/23 09:27:56;;;;;;;;;;;23.30;99.90;;;;;;7326896;19;9438;-83
2023/08/23 09:30:28;;;;;;;;;;;23.30;99.90;;;;;;7327176;19;9004;-84
2023/08/23 09:33:00;;;;;;;;;;;23.40;99.90;;;;;;7326929;19;9518;-84
2023/08/23 09:35:29;;;;;;;;;;;23.40;99.90;;;;;;7326510;19;9173;-84
2023/08/23 09:37:58;;;;;;;;;;;23.40;99.20;;;;;;7326712;19;9205;-84
2023/08/23 09:40:29;;;;;;;;;;;23.50;99.40;;;;;;7325025;19;9311;-84
2023/08/23 09:42:58;;;;;;;;;;;23.60;99.30;;;;;;7329419;19;9335;-84
2023/08/23 09:45:31;;;;;;;;;;;23.70;98.50;;;;;;7325091;19;9268;-84
2023/08/23 09:48:02;;;;;;;;;;;23.90;98.30;;;;;;7326406;19;9498;-84
2023/08/23 09:50:32;;;;;;;;;;;24.00;97.70;;;;;;7326402;19;10315;-84
2023/08/23 09:53:06;;;;;;;;;;;24.00;97.50;;;;;;7326303;19;9218;-83
2023/08/23 09:55:36;;;;;;;;;;;24.00;97.20;;;;;;7326303;19;9165;-83
2023/08/23 09:58:06;;;;;;;;;;;24.20;96.70;;;;;;7323377;19;9264;-83
2023/08/23 10:00:42;;;;;;;;;;;24.30;95.80;;;;;;7324297;19;9096;-83
2023/08/23 10:03:12;;;;;;;;;;;24.50;94.20;;;;;;7326088;19;9221;-83
2023/08/23 10:05:42;;;;;;;;;;;24.60;93.30;;;;;;7325674;19;10508;-84
2023/08/23 10:08:13;;;;;;;;;;;24.80;93.10;;;;;;7324987;19;9244;-84
2023/08/23 10:10:45;;;;;;;;;;;24.90;92.60;;;;;;7326039;19;10158;-84
2023/08/23 10:13:15;;;;;;;;;;;24.90;92.40;;;;;;7325762;19;9177;-85
2023/08/23 10:15:47;;;;;;;;;;;24.80;92.30;;;;;;7327633;19;10329;-84
2023/08/23 10:18:17;;;;;;;;;;;24.90;91.80;;;;;;7329405;19;9224;-84
2023/08/23 10:20:47;;;;;;;;;;;24.90;91.40;;;;;;7326284;19;9318;-84
2023/08/23 10:23:18;;;;;;;;;;;24.90;91.20;;;;;;7325764;19;9177;-83
2023/08/23 10:25:48;;;;;;;;;;;24.80;91.10;;;;;;7325481;19;9401;-84
2023/08/23 10:28:19;;;;;;;;;;;24.80;91.20;;;;;;7325634;19;10219;-84
2023/08/23 10:30:53;;;;;;;;;;;24.60;91.40;;;;;;7324957;19;9277;-84
2023/08/23 10:33:24;;;;;;;;;;;24.70;90.90;;;;;;7325047;19;9134;-83
2023/08/23 10:35:53;;;;;;;;;;;24.50;91.40;;;;;;7324684;19;9153;-84
2023/08/23 10:38:24;;;;;;;;;;;24.40;92.10;;;;;;7324713;19;9228;-84
2023/08/23 10:40:54;;;;;;;;;;;24.30;92.60;;;;;;7323397;19;9182;-84
2023/08/23 10:43:45;;;;;;;;;;;24.20;92.90;;;;;;7327530;19;9236;-84
2023/08/23 10:46:20;;;;;;;;;;;24.20;92.70;;;;;;7323036;19;9491;-84
2023/08/23 10:48:49;;;;;;;;;;;24.40;92.70;;;;;;7324528;19;9621;-84
2023/08/23 10:51:18;;;;;;;;;;;24.70;91.90;;;;;;7324469;19;9161;-84
2023/08/23 10:53:47;;;;;;;;;;;24.70;91.60;;;;;;7324162;19;10354;-84
2023/08/23 10:56:16;;;;;;;;;;;24.70;91.00;;;;;;7324562;19;9312;-83
2023/08/23 10:58:47;;;;;;;;;;;24.70;91.00;;;;;;7324131;19;9631;-83
2023/08/23 11:01:19;;;;;;;;;;;24.60;91.00;;;;;;7323128;19;9442;-84
2023/08/23 11:03:50;;;;;;;;;;;24.70;90.80;;;;;;7324327;19;9243;-83
2023/08/23 11:06:19;;;;;;;;;;;24.70;90.60;;;;;;7324616;19;9228;-84
2023/08/23 11:08:49;;;;;;;;;;;24.70;90.70;;;;;;7320392;19;9924;-84
2023/08/23 11:11:19;;;;;;;;;;;24.80;90.20;;;;;;7324002;19;9180;-84
2023/08/23 11:13:49;;;;;;;;;;;24.80;90.30;;;;;;7322123;19;9323;-84
2023/08/23 11:16:21;;;;;;;;;;;24.80;89.70;;;;;;7323937;19;9153;-84
2023/08/23 11:18:50;;;;;;;;;;;24.90;90.10;;;;;;7323900;19;9161;-84
2023/08/23 11:21:19;;;;;;;;;;;25.00;90.00;;;;;;7322331;19;9216;-83
2023/08/23 11:23:48;;;;;;;;;;;25.20;89.00;;;;;;7323828;19;9185;-83
2023/08/23 11:26:17;;;;;;;;;;;25.20;88.00;;;;;;7323510;19;9215;-84
2023/08/23 11:28:46;;;;;;;;;;;25.10;87.80;;;;;;7323389;19;9186;-84
2023/08/23 11:31:15;;;;;;;;;;;24.90;87.60;;;;;;7323343;19;9462;-84
2023/08/23 11:33:47;;;;;;;;;;;24.80;88.20;;;;;;7323225;19;9609;-85
2023/08/23 11:36:20;;;;;;;;;;;24.80;88.70;;;;;;7323660;19;10964;-84
2023/08/23 11:38:50;;;;;;;;;;;24.80;88.90;;;;;;7322954;19;9253;-84
2023/08/23 11:41:29;;;;;;;;;;;24.70;89.20;;;;;;7321410;19;9180;-84
2023/08/23 11:43:58;;;;;;;;;;;24.70;89.50;;;;;;7322997;19;10509;-84
2023/08/23 11:46:30;;;;;;;;;;;24.70;88.20;;;;;;7320803;19;9518;-84
2023/08/23 11:49:03;;;;;;;;;;;24.80;88.70;;;;;;7322587;19;9402;-84
2023/08/23 11:51:40;;;;;;;;;;;24.90;87.60;;;;;;7322671;19;9268;-84
2023/08/23 11:54:11;;;;;;;;;;;25.10;87.80;;;;;;7322730;19;9229;-84
2023/08/23 11:56:43;;;;;;;;;;;25.30;86.70;;;;;;7322655;19;9235;-83
2023/08/23 11:59:13;;;;;;;;;;;25.30;85.60;;;;;;7322288;19;9173;-83
2023/08/23 12:01:44;;;;;;;;;;;25.10;84.90;;;;;;7320483;19;9320;-84
2023/08/23 12:04:16;;;;;;;;;;;25.00;86.00;;;;;;7322594;19;9388;-84
2023/08/23 12:06:45;;;;;;;;;;;24.90;86.80;;;;;;7322286;19;8992;-83
2023/08/23 12:09:15;;;;;;;;;;;24.80;87.90;;;;;;7320539;19;9031;-85
2023/08/23 12:11:44;;;;;;;;;;;24.70;88.90;;;;;;7322015;19;10697;-84
2023/08/23 12:14:12;;;;;;;;;;;24.60;89.90;;;;;;7322371;19;9806;-83
2023/08/23 12:16:41;;;;;;;;;;;24.60;90.00;;;;;;7321981;19;9186;-84
2023/08/23 12:19:10;;;;;;;;;;;24.50;90.00;;;;;;7323595;19;10359;-84
2023/08/23 12:21:42;;;;;;;;;;;24.50;89.90;;;;;;7326306;19;9345;-84
2023/08/23 12:24:11;;;;;;;;;;;24.40;90.00;;;;;;7329775;19;10786;-84
2023/08/23 12:26:40;;;;;;;;;;;24.40;90.40;;;;;;7329216;19;9217;-84
2023/08/23 12:29:09;;;;;;;;;;;24.40;90.40;;;;;;7328943;19;9208;-85
2023/08/23 12:31:38;;;;;;;;;;;24.40;90.40;;;;;;7328901;19;9176;-84
2023/08/23 12:34:08;;;;;;;;;;;24.50;90.30;;;;;;7329010;19;9520;-85
2023/08/23 12:36:38;;;;;;;;;;;24.80;89.30;;;;;;7328750;19;11132;-85
2023/08/23 12:39:10;;;;;;;;;;;25.00;88.30;;;;;;7328628;19;9210;-84
2023/08/23 12:41:39;;;;;;;;;;;25.20;87.00;;;;;;7327371;19;9340;-84
2023/08/23 12:44:08;;;;;;;;;;;25.30;86.70;;;;;;7328350;19;9328;-84
2023/08/23 12:46:37;;;;;;;;;;;25.50;85.40;;;;;;7326139;19;9220;-84
2023/08/23 12:49:12;;;;;;;;;;;25.60;85.00;;;;;;7328478;19;10560;-84
2023/08/23 12:51:41;;;;;;;;;;;25.70;83.80;;;;;;7328264;19;9269;-84
2023/08/23 12:54:16;;;;;;;;;;;25.80;83.20;;;;;;7325600;19;9524;-85
2023/08/23 12:56:45;;;;;;;;;;;25.80;82.90;;;;;;7328315;19;9571;-83
2023/08/23 12:59:14;;;;;;;;;;;25.90;81.70;;;;;;7328152;19;9221;-84
2023/08/23 13:01:44;;;;;;;;;;;26.00;81.10;;;;;;7326582;19;10681;-84
2023/08/23 13:04:13;;;;;;;;;;;26.10;81.00;;;;;;7327980;19;9510;-83
2023/08/23 13:06:41;;;;;;;;;;;26.20;80.40;;;;;;7327659;19;9520;-84
2023/08/23 13:09:10;;;;;;;;;;;26.10;79.70;;;;;;7325847;19;9189;-84
2023/08/23 13:11:42;;;;;;;;;;;26.00;80.00;;;;;;7328026;19;9241;-84
2023/08/23 13:14:11;;;;;;;;;;;26.00;79.20;;;;;;7328189;19;9193;-83
2023/08/23 13:16:42;;;;;;;;;;;26.10;79.50;;;;;;7327666;19;9200;-83
2023/08/23 13:19:11;;;;;;;;;;;26.00;79.30;;;;;;7327776;19;9280;-83
2023/08/23 13:21:40;;;;;;;;;;;25.80;79.30;;;;;;7325875;19;9240;-84
2023/08/23 13:24:19;;;;;;;;;;;25.70;80.20;;;;;;7327299;19;9228;-85
2023/08/23 13:26:52;;;;;;;;;;;25.50;80.00;;;;;;7327089;19;8996;-84
2023/08/23 13:29:21;;;;;;;;;;;25.50;80.40;;;;;;7327159;19;9236;-84
2023/08/23 13:31:50;;;;;;;;;;;25.40;77.60;;;;;;7326426;19;9165;-84
2023/08/23 13:34:19;;;;;;;;;;;25.30;80.20;;;;;;7326763;19;9232;-83
2023/08/23 13:36:48;;;;;;;;;;;25.20;80.20;;;;;;7326852;19;9216;-83
2023/08/23 13:39:18;;;;;;;;;;;25.10;81.10;;;;;;7326693;19;9339;-84
2023/08/23 13:41:47;;;;;;;;;;;25.00;81.00;;;;;;7326799;19;9538;-84
2023/08/23 13:44:19;;;;;;;;;;;24.90;81.60;;;;;;7324900;19;10697;-83
2023/08/23 13:46:48;;;;;;;;;;;25.00;82.40;;;;;;7324448;19;9733;-84
2023/08/23 13:49:17;;;;;;;;;;;24.90;83.10;;;;;;7324759;19;9240;-84
2023/08/23 13:51:46;;;;;;;;;;;25.10;82.10;;;;;;7326546;19;9193;-85
2023/08/23 13:54:15;;;;;;;;;;;25.30;80.70;;;;;;7326558;19;9241;-84
2023/08/23 13:56:44;;;;;;;;;;;25.40;79.50;;;;;;7326282;19;9205;-83
2023/08/23 13:59:13;;;;;;;;;;;25.60;79.60;;;;;;7326175;19;9312;-84
2023/08/23 14:01:44;;;;;;;;;;;25.70;77.60;;;;;;7324867;19;9382;-84
2023/08/23 14:04:14;;;;;;;;;;;25.80;78.00;;;;;;7326172;19;9275;-84
2023/08/23 14:06:43;;;;;;;;;;;25.90;75.70;;;;;;7326056;19;9613;-83
2023/08/23 14:09:12;;;;;;;;;;;25.80;77.40;;;;;;7324630;19;9166;-84
2023/08/23 14:11:41;;;;;;;;;;;25.80;77.00;;;;;;7326179;19;9463;-83
2023/08/23 14:14:13;;;;;;;;;;;25.80;77.40;;;;;;7326576;19;9213;-83
2023/08/23 14:16:47;;;;;;;;;;;25.90;77.30;;;;;;7327697;19;9132;-83
2023/08/23 14:19:16;;;;;;;;;;;25.90;77.00;;;;;;7329055;19;10372;-84
2023/08/23 14:21:45;;;;;;;;;;;25.90;76.70;;;;;;7328955;19;9414;-84
2023/08/23 14:24:14;;;;;;;;;;;25.70;73.70;;;;;;7327540;19;9145;-83
2023/08/23 14:26:43;;;;;;;;;;;25.70;74.00;;;;;;7325645;19;9174;-84
2023/08/23 14:29:12;;;;;;;;;;;25.60;73.50;;;;;;7325209;19;9257;-84
2023/08/23 14:31:44;;;;;;;;;;;25.60;72.50;;;;;;7325145;19;10398;-84
2023/08/23 14:34:13;;;;;;;;;;;25.80;75.40;;;;;;7325067;19;9513;-84
2023/08/23 14:36:43;;;;;;;;;;;25.80;76.70;;;;;;7324894;19;9292;-84
2023/08/23 14:39:13;;;;;;;;;;;25.80;77.60;;;;;;7324628;19;9186;-84
2023/08/23 14:41:44;;;;;;;;;;;25.70;78.50;;;;;;7325357;19;10201;-84
2023/08/23 14:44:13;;;;;;;;;;;25.60;80.20;;;;;;7323222;19;9566;-84
2023/08/23 14:46:45;;;;;;;;;;;25.40;81.80;;;;;;7323094;19;9500;-84